createdAt,value
2023-04-28T00:00:54.033Z,74.81
2023-04-28T00:04:56.174Z,75.84
2023-04-28T00:08:58.246Z,75.82
2023-04-28T00:13:01.123Z,74.89
2023-04-28T00:17:03.327Z,74.92
2023-04-28T00:21:05.507Z,74.49
2023-04-28T00:25:08.490Z,73.20
2023-04-28T00:29:10.650Z,72.08
2023-04-28T00:33:13.633Z,72.93
2023-04-28T00:37:15.747Z,73.89
2023-04-28T00:41:17.774Z,75.17
2023-04-28T00:45:20.422Z,76.59
2023-04-28T00:49:22.455Z,77.56
2023-04-28T00:53:24.624Z,77.86
2023-04-28T00:57:27.088Z,79.20
2023-04-28T01:01:29.302Z,79.27
2023-04-28T01:05:31.773Z,79.92
2023-04-28T01:09:34.027Z,80.06
2023-04-28T01:13:36.333Z,80.00
2023-04-28T01:17:38.416Z,80.01
2023-04-28T01:21:40.451Z,80.17
2023-04-28T01:25:54.229Z,80.24
2023-04-28T01:29:58.298Z,81.15
2023-04-28T01:34:00.736Z,81.08
2023-04-28T01:38:02.785Z,81.62
2023-04-28T01:42:05.054Z,81.96
2023-04-28T01:46:08.146Z,82.09
2023-04-28T01:50:10.563Z,81.98
2023-04-28T01:54:12.551Z,81.23
2023-04-28T01:58:15.266Z,79.96
2023-04-28T02:02:17.370Z,78.26
2023-04-28T02:06:19.892Z,78.87
2023-04-28T02:10:21.908Z,78.07
2023-04-28T02:14:24.424Z,77.57
2023-04-28T02:18:26.632Z,75.82
2023-04-28T02:22:28.669Z,73.72
2023-04-28T02:26:30.682Z,73.85
2023-04-28T02:30:32.686Z,73.85
2023-04-28T02:34:34.746Z,73.14
2023-04-28T02:38:37.139Z,73.68
2023-04-28T02:42:40.866Z,74.41
2023-04-28T02:46:42.893Z,74.31
2023-04-28T02:50:46.262Z,74.44
2023-04-28T02:54:49.246Z,74.48
2023-04-28T02:58:52.767Z,74.48
2023-04-28T03:02:55.316Z,74.57
2023-04-28T03:06:57.451Z,74.33
2023-04-28T03:10:59.518Z,74.20
2023-04-28T03:15:03.341Z,73.95
2023-04-28T03:19:05.454Z,73.91
2023-04-28T03:23:07.495Z,73.21
2023-04-28T03:27:10.360Z,72.79
2023-04-28T03:31:12.469Z,72.72
2023-04-28T03:35:14.715Z,73.06
2023-04-28T03:39:17.480Z,73.99
2023-04-28T03:43:19.629Z,74.36
2023-04-28T03:47:40.166Z,75.11
2023-04-28T03:51:42.313Z,75.29
2023-04-28T03:55:44.971Z,75.65
2023-04-28T03:59:47.579Z,76.18
2023-04-28T04:03:49.747Z,76.23
2023-04-28T04:07:53.284Z,75.82
2023-04-28T04:11:55.306Z,75.33
2023-04-28T04:15:58.273Z,75.18
2023-04-28T04:20:00.449Z,75.22
2023-04-28T04:24:02.497Z,75.67
2023-04-28T04:28:05.041Z,76.96
2023-04-28T04:32:07.333Z,79.34
2023-04-28T04:36:10.143Z,80.67
2023-04-28T04:40:12.416Z,79.68
2023-04-28T04:44:21.674Z,81.81
2023-04-28T04:48:25.935Z,81.16
2023-04-28T04:52:28.104Z,79.63
2023-04-28T04:56:30.810Z,79.45
2023-04-28T05:00:33.710Z,79.57
2023-04-28T05:04:36.568Z,81.08
2023-04-28T05:08:39.249Z,82.01
2023-04-28T05:12:41.545Z,83.64
2023-04-28T05:16:43.829Z,85.44
2023-04-28T05:20:50.927Z,85.54
2023-04-28T05:24:54.202Z,87.14
2023-04-28T05:28:56.350Z,88.64
2023-04-28T05:32:58.387Z,88.28
2023-04-28T05:37:00.820Z,90.73
2023-04-28T05:41:04.842Z,91.62
2023-04-28T05:45:07.418Z,93.97
2023-04-28T05:49:10.110Z,95.32
2023-04-28T05:53:13.039Z,97.03
2023-04-28T05:57:15.647Z,98.26
2023-04-28T06:01:18.370Z,98.64
2023-04-28T06:05:21.993Z,100.00
2023-04-28T06:09:26.205Z,100.00
2023-04-28T06:13:28.754Z,99.32
2023-04-28T06:17:32.697Z,99.11
2023-04-28T06:21:34.795Z,98.03
2023-04-28T06:25:38.355Z,100.00
2023-04-28T06:29:40.403Z,100.00
2023-04-28T06:33:42.408Z,100.00
2023-04-28T06:37:44.537Z,100.00
2023-04-28T06:41:47.164Z,100.00
2023-04-28T06:45:49.525Z,100.00
2023-04-28T06:49:52.286Z,100.00
2023-04-28T06:53:54.378Z,100.00
2023-04-28T06:57:56.410Z,100.00
2023-04-28T07:01:58.429Z,100.00
2023-04-28T07:06:00.623Z,100.00
2023-04-28T07:10:02.724Z,100.00
2023-04-28T07:14:04.786Z,100.00
2023-04-28T07:18:07.488Z,100.00
2023-04-28T07:22:09.632Z,100.00
2023-04-28T07:26:13.655Z,100.00
2023-04-28T07:30:29.395Z,100.00
2023-04-28T07:34:31.508Z,100.00
2023-04-28T07:38:37.279Z,100.00
2023-04-28T07:42:39.282Z,100.00
2023-04-28T07:46:41.403Z,100.00
2023-04-28T07:50:43.506Z,100.00
2023-04-28T07:54:45.541Z,99.39
2023-04-28T07:58:47.819Z,99.74
2023-04-28T08:02:49.955Z,98.76
2023-04-28T08:06:52.855Z,99.37
2023-04-28T08:10:55.024Z,99.25
2023-04-28T08:14:57.325Z,99.92
2023-04-28T08:19:00.404Z,100.00
2023-04-28T08:23:02.588Z,100.00
2023-04-28T08:27:04.968Z,100.00
2023-04-28T08:31:07.237Z,100.00
2023-04-28T08:35:10.031Z,99.92
2023-04-28T08:39:13.544Z,100.00
2023-04-28T08:43:16.311Z,100.00
2023-04-28T08:47:21.226Z,100.00
2023-04-28T08:51:40.888Z,100.00
2023-04-28T08:55:44.868Z,100.00
2023-04-28T08:59:47.571Z,100.00
2023-04-28T09:03:50.089Z,100.00
2023-04-28T09:07:52.333Z,100.00
2023-04-28T09:11:55.977Z,99.64
2023-04-28T09:16:02.861Z,98.35
2023-04-28T09:20:20.264Z,97.66
2023-04-28T09:24:42.825Z,97.29
2023-04-28T09:28:44.959Z,97.09
2023-04-28T09:33:04.314Z,96.60
2023-04-28T09:37:19.804Z,95.72
2023-04-28T09:41:22.873Z,94.41
2023-04-28T09:45:25.827Z,94.85
2023-04-28T09:49:27.874Z,92.41
2023-04-28T09:53:30.682Z,90.85
2023-04-28T09:57:35.500Z,89.52
2023-04-28T10:01:40.542Z,87.99
2023-04-28T10:05:43.074Z,86.12
2023-04-28T10:09:47.953Z,84.90
2023-04-28T10:13:50.075Z,83.13
2023-04-28T10:17:53.461Z,82.01
2023-04-28T10:22:19.627Z,81.41
2023-04-28T10:26:25.329Z,76.49
2023-04-28T10:30:29.519Z,75.10
2023-04-28T10:34:32.082Z,76.74
2023-04-28T10:38:35.068Z,77.13
2023-04-28T10:42:54.662Z,78.62
2023-04-28T10:47:04.831Z,79.43
2023-04-28T10:51:07.433Z,83.33
2023-04-28T10:55:36.798Z,84.05
2023-04-28T10:59:38.916Z,86.44
2023-04-28T11:03:51.506Z,87.33
2023-04-28T11:08:26.666Z,89.51
2023-04-28T11:12:28.713Z,84.00
2023-04-28T11:16:32.814Z,80.04
2023-04-28T11:20:36.100Z,78.68
2023-04-28T11:24:38.199Z,76.62
2023-04-28T11:28:51.379Z,76.16
2023-04-28T11:32:53.746Z,75.13
2023-04-28T11:36:56.137Z,74.82
2023-04-28T11:40:59.216Z,75.22
2023-04-28T11:45:01.364Z,77.04
2023-04-28T11:49:05.682Z,77.98
2023-04-28T11:53:07.794Z,75.31
2023-04-28T11:57:21.201Z,76.57
2023-04-28T12:01:23.256Z,78.43
2023-04-28T12:05:25.568Z,79.29
2023-04-28T12:09:27.800Z,78.24
2023-04-28T12:13:30.048Z,75.90
2023-04-28T12:17:39.495Z,74.39
2023-04-28T12:21:42.636Z,73.08
2023-04-28T12:25:47.193Z,74.50
2023-04-28T12:29:49.303Z,74.32
2023-04-28T12:33:51.341Z,75.26
2023-04-28T12:37:55.260Z,74.31
2023-04-28T12:41:59.316Z,75.80
2023-04-28T12:46:01.494Z,73.04
2023-04-28T12:50:03.965Z,73.45
2023-04-28T12:54:06.870Z,74.52
2023-04-28T12:58:08.957Z,75.82
2023-04-28T13:02:11.098Z,76.84
2023-04-28T13:06:13.185Z,77.23
2023-04-28T13:10:15.260Z,78.41
2023-04-28T13:14:17.299Z,79.41
2023-04-28T13:18:19.338Z,79.27
2023-04-28T13:22:24.454Z,77.57
2023-04-28T13:26:26.787Z,77.03
2023-04-28T13:30:28.804Z,78.32
2023-04-28T13:34:31.510Z,77.74
2023-04-28T13:38:33.644Z,74.60
2023-04-28T13:42:35.704Z,75.57
2023-04-28T13:46:37.726Z,75.15
2023-04-28T13:50:39.838Z,74.93
2023-04-28T13:54:41.876Z,77.08
2023-04-28T13:58:43.916Z,77.98
2023-04-28T14:02:46.545Z,78.40
2023-04-28T14:06:50.397Z,80.68
2023-04-28T14:10:52.417Z,83.77
2023-04-28T14:14:54.418Z,86.01
2023-04-28T14:18:56.485Z,89.54
2023-04-28T14:22:59.362Z,92.51
2023-04-28T14:27:01.432Z,95.81
2023-04-28T14:31:07.009Z,98.34
2023-04-28T14:35:11.164Z,100.00
2023-04-28T14:39:13.210Z,100.00
2023-04-28T14:43:15.230Z,98.04
2023-04-28T14:47:17.280Z,94.78
2023-04-28T14:51:19.363Z,96.27
2023-04-28T14:55:21.492Z,96.40
2023-04-28T14:59:23.541Z,97.65
2023-04-28T15:03:25.757Z,96.22
2023-04-28T15:07:31.304Z,95.48
2023-04-28T15:11:33.489Z,95.66
2023-04-28T15:15:35.940Z,95.47
2023-04-28T15:19:38.004Z,96.99
2023-04-28T15:23:40.535Z,99.13
2023-04-28T15:27:42.791Z,99.56
2023-04-28T15:31:45.285Z,100.00
2023-04-28T15:35:47.464Z,100.00
2023-04-28T15:39:49.604Z,100.00
2023-04-28T15:43:52.011Z,100.00
2023-04-28T15:47:55.056Z,100.00
2023-04-28T15:51:57.213Z,100.00
2023-04-28T15:55:59.553Z,100.00
2023-04-28T16:00:01.598Z,100.00
2023-04-28T16:04:09.848Z,100.00
2023-04-28T16:08:12.446Z,100.00
2023-04-28T16:12:14.559Z,100.00
2023-04-28T16:16:16.742Z,100.00
2023-04-28T16:20:19.487Z,100.00
2023-04-28T16:24:22.457Z,100.00
2023-04-28T16:28:24.859Z,100.00
2023-04-28T16:32:27.712Z,100.00
2023-04-28T16:36:33.028Z,100.00
2023-04-28T16:40:35.097Z,100.00
2023-04-28T16:44:37.094Z,100.00
2023-04-28T16:48:39.118Z,100.00
2023-04-28T16:52:41.638Z,100.00
2023-04-28T16:56:43.650Z,100.00
2023-04-28T17:00:45.678Z,100.00
2023-04-28T17:04:47.820Z,100.00
2023-04-28T17:08:49.857Z,100.00
2023-04-28T17:12:52.477Z,100.00
2023-04-28T17:16:54.852Z,100.00
2023-04-28T17:20:57.441Z,100.00
2023-04-28T17:24:59.581Z,100.00
2023-04-28T17:29:02.403Z,100.00
2023-04-28T17:33:05.117Z,100.00
2023-04-28T17:37:07.217Z,100.00
2023-04-28T17:41:09.245Z,100.00
2023-04-28T17:45:11.733Z,100.00
2023-04-28T17:49:13.765Z,100.00
2023-04-28T17:53:16.269Z,100.00
2023-04-28T17:57:18.735Z,100.00
2023-04-28T18:01:21.135Z,100.00
2023-04-28T18:05:24.294Z,100.00
2023-04-28T18:09:27.109Z,100.00
2023-04-28T18:13:29.367Z,100.00
2023-04-28T18:17:33.235Z,100.00
2023-04-28T18:21:35.320Z,100.00
2023-04-28T18:25:37.716Z,100.00
2023-04-28T18:29:40.242Z,100.00
2023-04-28T18:33:42.421Z,100.00
2023-04-28T18:37:45.411Z,100.00
2023-04-28T18:41:47.519Z,100.00
2023-04-28T18:45:49.852Z,100.00
2023-04-28T18:49:52.166Z,100.00
2023-04-28T18:53:54.308Z,100.00
2023-04-28T18:57:56.428Z,100.00
2023-04-28T19:01:58.506Z,100.00
2023-04-28T19:06:01.764Z,100.00
2023-04-28T19:10:05.100Z,100.00
2023-04-28T19:14:07.393Z,100.00
2023-04-28T19:18:09.554Z,100.00
2023-04-28T19:22:31.499Z,100.00
2023-04-28T19:26:33.601Z,100.00
2023-04-28T19:30:35.898Z,100.00
2023-04-28T19:34:37.927Z,100.00
2023-04-28T19:38:40.298Z,100.00
2023-04-28T19:42:42.440Z,100.00
2023-04-28T19:46:46.144Z,100.00
2023-04-28T19:50:48.391Z,100.00
2023-04-28T19:54:50.909Z,100.00
2023-04-28T19:58:52.970Z,100.00
2023-04-28T20:02:55.170Z,100.00
2023-04-28T20:06:57.372Z,100.00
2023-04-28T20:10:59.458Z,100.00
2023-04-28T20:15:01.669Z,100.00
2023-04-28T20:19:03.716Z,100.00
2023-04-28T20:23:06.020Z,100.00
2023-04-28T20:27:08.197Z,100.00
2023-04-28T20:31:10.501Z,100.00
2023-04-28T20:35:13.068Z,100.00
2023-04-28T20:39:15.104Z,100.00
2023-04-28T20:43:17.138Z,100.00
2023-04-28T20:47:19.215Z,98.74
2023-04-28T20:51:21.407Z,98.78
2023-04-28T20:55:23.502Z,98.36
2023-04-28T20:59:25.681Z,98.34
2023-04-28T21:03:29.776Z,99.46
2023-04-28T21:07:31.839Z,100.00
2023-04-28T21:11:33.908Z,100.00
2023-04-28T21:15:37.274Z,100.00
2023-04-28T21:19:39.318Z,100.00
2023-04-28T21:23:42.627Z,100.00
2023-04-28T21:27:44.685Z,100.00
2023-04-28T21:31:47.394Z,100.00
2023-04-28T21:35:49.501Z,100.00
2023-04-28T21:39:52.006Z,100.00
2023-04-28T21:43:55.151Z,100.00
2023-04-28T21:47:59.999Z,100.00
2023-04-28T21:52:02.322Z,100.00
2023-04-28T21:56:05.649Z,100.00
2023-04-28T22:00:10.627Z,100.00
2023-04-28T22:04:15.351Z,100.00
2023-04-28T22:08:17.520Z,100.00
2023-04-28T22:12:19.628Z,100.00
2023-04-28T22:16:22.180Z,100.00
2023-04-28T22:20:24.405Z,100.00
2023-04-28T22:24:27.503Z,100.00
2023-04-28T22:28:30.179Z,100.00
2023-04-28T22:32:32.266Z,100.00
2023-04-28T22:36:34.279Z,100.00
2023-04-28T22:40:36.373Z,100.00
2023-04-28T22:44:38.393Z,100.00
2023-04-28T22:48:40.407Z,100.00
2023-04-28T22:52:42.484Z,100.00
2023-04-28T22:56:44.490Z,100.00
2023-04-28T23:00:46.547Z,100.00
2023-04-28T23:04:49.070Z,100.00
2023-04-28T23:08:51.517Z,100.00
2023-04-28T23:12:53.658Z,100.00
2023-04-28T23:16:55.929Z,100.00
2023-04-28T23:20:58.059Z,100.00
2023-04-28T23:25:00.138Z,100.00
2023-04-28T23:29:02.222Z,100.00
2023-04-28T23:33:04.915Z,100.00
2023-04-28T23:37:07.219Z,100.00
2023-04-28T23:41:09.297Z,100.00
2023-04-28T23:45:11.645Z,100.00
2023-04-28T23:49:13.674Z,100.00
2023-04-28T23:53:15.714Z,100.00
2023-04-28T23:57:17.754Z,100.00
